createdAt,value
2023-02-19T00:00:29.280Z,5.60
2023-02-19T00:01:35.518Z,5.65
2023-02-19T00:02:37.051Z,5.22
2023-02-19T00:03:38.719Z,5.22
2023-02-19T00:04:40.368Z,4.97
2023-02-19T00:05:41.899Z,5.55
2023-02-19T00:06:43.847Z,5.38
2023-02-19T00:07:45.394Z,5.72
2023-02-19T00:08:46.897Z,4.97
2023-02-19T00:09:48.382Z,5.10
2023-02-19T00:10:49.867Z,4.90
2023-02-19T00:11:51.397Z,5.18
2023-02-19T00:12:52.986Z,5.03
2023-02-19T00:13:55.527Z,5.25
2023-02-19T00:14:58.440Z,4.75
2023-02-19T00:16:00.570Z,5.00
2023-02-19T00:17:02.454Z,4.70
2023-02-19T00:18:04.107Z,4.45
2023-02-19T00:19:07.135Z,5.13
2023-02-19T00:20:09.112Z,4.38
2023-02-19T00:21:10.993Z,5.05
2023-02-19T00:22:12.760Z,4.60
2023-02-19T00:23:14.322Z,4.90
2023-02-19T00:24:15.866Z,4.82
2023-02-19T00:25:17.379Z,4.15
2023-02-19T00:26:19.111Z,4.38
2023-02-19T00:27:20.707Z,4.20
2023-02-19T00:28:22.452Z,4.55
2023-02-19T00:29:25.064Z,4.53
2023-02-19T00:30:26.635Z,4.70
2023-02-19T00:31:33.341Z,4.35
2023-02-19T00:32:35.435Z,4.40
2023-02-19T00:33:37.002Z,4.38
2023-02-19T00:34:38.530Z,4.20
2023-02-19T00:35:40.133Z,4.50
2023-02-19T00:36:41.928Z,4.45
2023-02-19T00:37:43.719Z,4.50
2023-02-19T00:38:45.206Z,4.57
2023-02-19T00:39:46.831Z,5.10
2023-02-19T00:40:48.350Z,4.72
2023-02-19T00:41:50.313Z,4.80
2023-02-19T00:42:52.310Z,5.03
2023-02-19T00:43:55.127Z,4.47
2023-02-19T00:44:56.616Z,4.70
2023-02-19T00:45:58.126Z,4.40
2023-02-19T00:46:59.650Z,4.00
2023-02-19T00:48:01.191Z,5.03
2023-02-19T00:49:02.783Z,5.07
2023-02-19T00:50:04.372Z,4.55
2023-02-19T00:51:05.852Z,5.18
2023-02-19T00:52:07.387Z,5.03
2023-02-19T00:53:08.907Z,4.38
2023-02-19T00:54:10.462Z,4.57
2023-02-19T00:55:11.949Z,4.75
2023-02-19T00:56:13.491Z,5.00
2023-02-19T00:57:15.123Z,5.03
2023-02-19T00:58:16.623Z,4.97
2023-02-19T00:59:18.120Z,4.40
2023-02-19T01:00:19.816Z,4.63
2023-02-19T01:01:21.453Z,4.60
2023-02-19T01:02:22.989Z,4.32
2023-02-19T01:03:24.759Z,4.60
2023-02-19T01:04:26.334Z,4.88
2023-02-19T01:05:27.880Z,4.38
2023-02-19T01:06:30.743Z,4.15
2023-02-19T01:07:32.256Z,4.65
2023-02-19T01:08:33.948Z,5.10
2023-02-19T01:09:35.452Z,4.63
2023-02-19T01:10:36.907Z,4.30
2023-02-19T01:11:38.456Z,4.80
2023-02-19T01:12:39.964Z,4.43
2023-02-19T01:13:41.662Z,4.90
2023-02-19T01:14:43.168Z,4.43
2023-02-19T01:15:44.850Z,4.15
2023-02-19T01:16:46.337Z,4.60
2023-02-19T01:17:47.822Z,4.03
2023-02-19T01:18:49.370Z,4.70
2023-02-19T01:19:50.953Z,4.03
2023-02-19T01:20:52.449Z,4.50
2023-02-19T01:21:53.938Z,4.00
2023-02-19T01:22:55.455Z,4.43
2023-02-19T01:23:57.342Z,4.43
2023-02-19T01:24:58.866Z,4.00
2023-02-19T01:26:00.674Z,4.40
2023-02-19T01:27:02.199Z,4.45
2023-02-19T01:28:03.752Z,4.50
2023-02-19T01:29:05.233Z,4.20
2023-02-19T01:30:07.149Z,4.70
2023-02-19T01:31:11.856Z,4.43
2023-02-19T01:32:13.585Z,4.07
2023-02-19T01:33:15.133Z,4.22
2023-02-19T01:34:16.614Z,4.18
2023-02-19T01:35:18.108Z,4.30
2023-02-19T01:36:19.727Z,4.60
2023-02-19T01:37:21.221Z,3.90
2023-02-19T01:38:22.835Z,4.65
2023-02-19T01:39:24.320Z,4.53
2023-02-19T01:40:26.412Z,3.92
2023-02-19T01:41:27.892Z,3.97
2023-02-19T01:42:29.395Z,4.05
2023-02-19T01:43:34.628Z,3.95
2023-02-19T01:44:35.977Z,4.47
2023-02-19T01:45:39.406Z,4.47
2023-02-19T01:46:42.257Z,4.35
2023-02-19T01:47:43.785Z,4.38
2023-02-19T01:48:45.290Z,4.32
2023-02-19T01:49:52.533Z,4.40
2023-02-19T01:51:05.805Z,4.55
2023-02-19T01:52:16.357Z,4.22
2023-02-19T01:53:19.566Z,4.28
2023-02-19T01:54:22.041Z,4.28
2023-02-19T01:55:23.631Z,4.20
2023-02-19T01:56:25.492Z,4.85
2023-02-19T01:57:28.589Z,4.70
2023-02-19T01:58:32.022Z,4.43
2023-02-19T01:59:33.578Z,4.55
2023-02-19T02:00:35.218Z,4.78
2023-02-19T02:01:37.779Z,4.15
2023-02-19T02:02:40.043Z,4.65
2023-02-19T02:03:42.446Z,4.32
2023-02-19T02:04:44.104Z,4.40
2023-02-19T02:05:59.461Z,4.90
2023-02-19T02:07:02.262Z,4.22
2023-02-19T02:08:22.594Z,4.15
2023-02-19T02:09:45.715Z,4.10
2023-02-19T02:10:47.174Z,4.10
2023-02-19T02:11:49.948Z,4.03
2023-02-19T02:12:53.097Z,3.78
2023-02-19T02:13:54.648Z,4.32
2023-02-19T02:14:56.152Z,3.60
2023-02-19T02:16:11.577Z,4.15
2023-02-19T02:17:31.644Z,4.05
2023-02-19T02:18:54.693Z,3.90
2023-02-19T02:20:14.576Z,4.05
2023-02-19T02:21:34.888Z,3.55
2023-02-19T02:22:43.460Z,4.05
2023-02-19T02:23:57.006Z,3.88
2023-02-19T02:25:10.490Z,3.85
2023-02-19T02:26:31.271Z,4.13
2023-02-19T02:27:44.413Z,4.10
2023-02-19T02:28:57.834Z,4.05
2023-02-19T02:30:16.084Z,4.10
2023-02-19T02:31:25.609Z,3.63
2023-02-19T02:32:30.603Z,3.97
2023-02-19T02:33:39.695Z,3.92
2023-02-19T02:35:53.047Z,4.00
2023-02-19T02:36:55.569Z,3.97
2023-02-19T02:38:00.024Z,3.95
2023-02-19T02:39:03.367Z,4.10
2023-02-19T02:40:05.473Z,4.10
2023-02-19T02:41:07.001Z,4.03
2023-02-19T02:42:27.246Z,4.10
2023-02-19T02:43:28.771Z,4.40
2023-02-19T02:44:36.806Z,4.22
2023-02-19T02:45:39.797Z,4.57
2023-02-19T02:46:42.324Z,5.28
2023-02-19T02:47:49.650Z,4.90
2023-02-19T02:48:53.885Z,4.90
2023-02-19T02:50:07.483Z,4.88
2023-02-19T02:51:29.226Z,4.70
2023-02-19T02:52:52.943Z,4.90
2023-02-19T02:54:30.442Z,5.30
2023-02-19T02:55:34.537Z,5.45
2023-02-19T02:56:36.063Z,5.03
2023-02-19T02:57:37.574Z,5.63
2023-02-19T02:58:39.107Z,4.90
2023-02-19T02:59:40.650Z,5.30
2023-02-19T03:01:02.535Z,4.55
2023-02-19T03:02:13.964Z,5.28
2023-02-19T03:03:15.708Z,4.90
2023-02-19T03:04:24.834Z,5.30
2023-02-19T03:06:46.127Z,4.60
2023-02-19T03:07:50.141Z,5.07
2023-02-19T03:09:14.310Z,4.80
2023-02-19T03:10:18.351Z,4.55
2023-02-19T03:11:38.379Z,4.90
2023-02-19T03:12:58.588Z,5.22
2023-02-19T03:14:18.807Z,4.30
2023-02-19T03:15:38.778Z,4.25
2023-02-19T03:16:58.945Z,5.28
2023-02-19T03:18:21.406Z,4.70
2023-02-19T03:19:23.358Z,4.93
2023-02-19T03:20:24.895Z,5.10
2023-02-19T03:21:26.388Z,4.60
2023-02-19T03:22:33.411Z,4.60
2023-02-19T03:23:54.034Z,5.10
2023-02-19T03:25:18.769Z,4.93
2023-02-19T03:26:20.373Z,4.70
2023-02-19T03:27:21.863Z,5.18
2023-02-19T03:28:45.137Z,5.43
2023-02-19T03:29:47.003Z,5.13
2023-02-19T03:30:50.765Z,4.70
2023-02-19T03:31:57.599Z,5.20
2023-02-19T03:33:08.740Z,4.10
2023-02-19T03:34:12.252Z,5.63
2023-02-19T03:35:17.046Z,4.45
2023-02-19T03:36:20.727Z,4.80
2023-02-19T03:37:27.161Z,4.43
2023-02-19T03:38:39.522Z,4.45
2023-02-19T03:39:47.134Z,4.97
2023-02-19T03:40:54.159Z,4.97
2023-02-19T03:41:55.557Z,4.63
2023-02-19T03:43:38.316Z,5.40
2023-02-19T03:44:42.331Z,4.72
2023-02-19T03:46:01.792Z,4.75
2023-02-19T03:47:03.553Z,4.97
2023-02-19T03:48:08.075Z,4.53
2023-02-19T03:49:29.968Z,4.90
2023-02-19T03:50:40.214Z,4.50
2023-02-19T03:51:48.494Z,4.32
2023-02-19T03:52:49.874Z,4.72
2023-02-19T03:54:02.621Z,5.03
2023-02-19T03:55:53.050Z,5.00
2023-02-19T03:57:00.667Z,4.70
2023-02-19T03:58:06.162Z,4.35
2023-02-19T03:59:38.667Z,4.78
2023-02-19T04:00:44.910Z,4.50
2023-02-19T04:01:55.357Z,4.53
2023-02-19T04:03:00.007Z,4.90
2023-02-19T04:04:04.817Z,4.57
2023-02-19T04:05:14.746Z,4.32
2023-02-19T04:06:22.585Z,4.40
2023-02-19T04:07:24.150Z,4.70
2023-02-19T04:08:25.662Z,4.00
2023-02-19T04:09:30.744Z,4.03
2023-02-19T04:10:32.308Z,4.38
2023-02-19T04:11:33.867Z,4.10
2023-02-19T04:12:37.217Z,3.85
2023-02-19T04:14:09.352Z,4.22
2023-02-19T04:15:12.683Z,4.30
2023-02-19T04:16:18.475Z,4.13
2023-02-19T04:17:23.695Z,4.25
2023-02-19T04:18:26.550Z,3.92
2023-02-19T04:19:28.169Z,3.22
2023-02-19T04:20:32.152Z,4.20
2023-02-19T04:21:33.784Z,3.92
2023-02-19T04:22:36.037Z,3.83
2023-02-19T04:23:40.676Z,4.22
2023-02-19T04:24:45.118Z,3.80
2023-02-19T04:25:47.807Z,3.80
2023-02-19T04:26:49.283Z,4.03
2023-02-19T04:27:50.775Z,3.55
2023-02-19T04:28:52.261Z,3.65
2023-02-19T04:29:54.119Z,3.65
2023-02-19T04:30:55.686Z,3.75
2023-02-19T04:31:57.227Z,3.78
2023-02-19T04:32:58.730Z,3.97
2023-02-19T04:34:00.279Z,3.70
2023-02-19T04:35:01.797Z,3.83
2023-02-19T04:36:03.387Z,3.83
2023-02-19T04:37:05.021Z,3.70
2023-02-19T04:38:06.594Z,3.60
2023-02-19T04:39:08.685Z,3.95
2023-02-19T04:40:10.594Z,3.80
2023-02-19T04:41:12.423Z,4.03
2023-02-19T04:42:14.126Z,3.33
2023-02-19T04:43:15.668Z,3.30
2023-02-19T04:44:17.622Z,3.25
2023-02-19T04:45:19.226Z,3.28
2023-02-19T04:46:20.805Z,3.78
2023-02-19T04:47:22.330Z,3.28
2023-02-19T04:48:23.853Z,3.67
2023-02-19T04:49:25.669Z,3.05
2023-02-19T04:50:27.235Z,3.17
2023-02-19T04:51:28.861Z,3.20
2023-02-19T04:52:30.507Z,3.40
2023-02-19T04:53:32.004Z,3.20
2023-02-19T04:54:33.542Z,3.00
2023-02-19T04:55:38.693Z,3.30
2023-02-19T04:56:40.328Z,3.38
2023-02-19T04:57:41.829Z,3.38
2023-02-19T04:58:43.875Z,3.08
2023-02-19T04:59:46.819Z,3.10
2023-02-19T05:01:52.768Z,2.72
2023-02-19T05:02:54.328Z,3.30
2023-02-19T05:03:56.032Z,2.90
2023-02-19T05:04:57.546Z,2.72
2023-02-19T05:06:02.549Z,2.67
2023-02-19T05:07:04.052Z,2.80
2023-02-19T05:08:05.669Z,3.15
2023-02-19T05:09:07.499Z,3.00
2023-02-19T05:10:09.063Z,3.03
2023-02-19T05:11:11.620Z,3.47
2023-02-19T05:12:13.289Z,2.97
2023-02-19T05:13:14.845Z,3.08
2023-02-19T05:14:17.626Z,2.85
2023-02-19T05:15:19.461Z,2.90
2023-02-19T05:16:21.029Z,3.05
2023-02-19T05:17:22.529Z,2.50
2023-02-19T05:18:25.671Z,2.25
2023-02-19T05:19:27.533Z,3.17
2023-02-19T05:20:29.064Z,2.67
2023-02-19T05:21:30.593Z,2.92
2023-02-19T05:22:32.164Z,3.20
2023-02-19T05:23:33.668Z,3.10
2023-02-19T05:24:35.486Z,2.20
2023-02-19T05:25:36.982Z,2.63
2023-02-19T05:26:38.457Z,2.80
2023-02-19T05:27:40.178Z,2.95
2023-02-19T05:28:42.007Z,2.97
2023-02-19T05:29:43.478Z,2.50
2023-02-19T05:30:46.447Z,2.72
2023-02-19T05:32:50.654Z,2.38
2023-02-19T05:33:53.234Z,2.60
2023-02-19T05:34:54.718Z,3.13
2023-02-19T05:35:56.260Z,2.50
2023-02-19T05:36:57.914Z,2.35
2023-02-19T05:37:59.660Z,2.70
2023-02-19T05:39:01.212Z,2.00
2023-02-19T05:40:02.710Z,2.60
2023-02-19T05:41:11.602Z,2.92
2023-02-19T05:43:15.227Z,2.67
2023-02-19T05:44:17.234Z,2.28
2023-02-19T05:45:18.739Z,2.47
2023-02-19T05:46:21.766Z,2.58
2023-02-19T05:47:23.326Z,2.53
2023-02-19T05:48:24.843Z,2.45
2023-02-19T05:49:27.532Z,2.53
2023-02-19T05:50:29.395Z,2.55
2023-02-19T05:51:30.979Z,2.67
2023-02-19T05:52:33.041Z,2.47
2023-02-19T05:53:34.546Z,2.30
2023-02-19T05:54:36.079Z,2.35
2023-02-19T05:55:37.580Z,2.40
2023-02-19T05:56:39.950Z,2.33
2023-02-19T05:57:45.713Z,2.35
2023-02-19T05:58:47.687Z,2.42
2023-02-19T05:59:49.224Z,2.30
2023-02-19T06:00:50.948Z,2.30
2023-02-19T06:01:53.480Z,2.38
2023-02-19T06:02:55.046Z,2.35
2023-02-19T06:03:57.873Z,2.33
2023-02-19T06:08:03.824Z,2.33
2023-02-19T06:09:05.755Z,1.83
2023-02-19T06:10:07.885Z,2.30
2023-02-19T06:11:09.708Z,2.50
2023-02-19T06:12:11.349Z,2.03
2023-02-19T06:13:12.885Z,2.28
2023-02-19T06:14:14.557Z,2.30
2023-02-19T06:15:16.140Z,2.08
2023-02-19T06:16:18.385Z,2.20
2023-02-19T06:17:19.975Z,2.15
2023-02-19T06:18:21.556Z,1.95
2023-02-19T06:19:23.034Z,1.98
2023-02-19T06:20:26.294Z,2.03
2023-02-19T06:21:27.995Z,1.95
2023-02-19T06:22:29.487Z,2.30
2023-02-19T06:23:31.385Z,2.00
2023-02-19T06:24:33.106Z,2.13
2023-02-19T06:25:34.587Z,2.08
2023-02-19T06:26:36.193Z,1.98
2023-02-19T06:27:37.819Z,1.95
2023-02-19T06:28:39.573Z,2.10
2023-02-19T06:29:41.202Z,1.80
2023-02-19T06:30:42.712Z,2.03
2023-02-19T06:31:44.891Z,2.17
2023-02-19T06:32:46.524Z,2.42
2023-02-19T06:33:48.429Z,2.20
2023-02-19T06:34:50.013Z,2.17
2023-02-19T06:35:51.560Z,2.30
2023-02-19T06:36:53.060Z,2.40
2023-02-19T06:37:54.541Z,2.28
2023-02-19T06:38:59.691Z,4.45
2023-02-19T06:40:01.276Z,2.90
2023-02-19T06:41:03.772Z,2.47
2023-02-19T06:42:05.321Z,2.28
2023-02-19T06:43:06.869Z,2.20
2023-02-19T06:44:08.417Z,2.83
2023-02-19T06:45:09.911Z,2.28
2023-02-19T06:46:11.676Z,2.20
2023-02-19T06:47:13.363Z,2.15
2023-02-19T06:48:14.883Z,2.17
2023-02-19T06:49:16.454Z,1.98
2023-02-19T06:50:17.962Z,2.17
2023-02-19T06:51:22.593Z,2.10
2023-02-19T06:52:24.087Z,2.20
2023-02-19T06:53:25.613Z,2.00
2023-02-19T06:54:27.097Z,1.85
2023-02-19T06:55:28.741Z,2.13
2023-02-19T06:56:31.794Z,2.20
2023-02-19T06:57:33.605Z,2.17
2023-02-19T06:58:35.111Z,2.13
2023-02-19T06:59:36.602Z,2.50
2023-02-19T07:00:38.133Z,2.25
2023-02-19T07:01:39.821Z,2.10
2023-02-19T07:02:41.694Z,2.17
2023-02-19T07:03:43.236Z,1.75
2023-02-19T07:04:44.776Z,1.92
2023-02-19T07:05:46.337Z,2.10
2023-02-19T07:06:47.827Z,2.28
2023-02-19T07:07:49.938Z,1.73
2023-02-19T07:08:51.561Z,2.17
2023-02-19T07:09:53.109Z,2.40
2023-02-19T07:10:57.836Z,2.22
2023-02-19T07:11:59.358Z,2.28
2023-02-19T07:13:01.162Z,1.98
2023-02-19T07:14:03.762Z,1.98
2023-02-19T07:15:05.450Z,1.92
2023-02-19T07:16:08.472Z,1.95
2023-02-19T07:17:10.047Z,2.33
2023-02-19T07:18:11.937Z,1.90
2023-02-19T07:19:14.902Z,1.88
2023-02-19T07:22:19.260Z,1.88
2023-02-19T07:23:20.859Z,1.70
2023-02-19T07:24:22.664Z,1.90
2023-02-19T07:25:24.163Z,1.80
2023-02-19T07:26:25.792Z,1.70
2023-02-19T07:27:27.624Z,1.92
2023-02-19T07:28:29.165Z,1.92
2023-02-19T07:29:30.660Z,1.80
2023-02-19T07:30:32.200Z,1.50
2023-02-19T07:31:33.828Z,1.80
2023-02-19T07:32:35.802Z,1.60
2023-02-19T07:33:37.358Z,1.73
2023-02-19T07:34:38.942Z,1.80
2023-02-19T07:35:49.824Z,1.80
2023-02-19T07:36:51.331Z,1.70
2023-02-19T07:37:53.396Z,1.60
2023-02-19T07:39:00.144Z,1.95
2023-02-19T07:40:02.090Z,1.90
2023-02-19T07:41:04.308Z,1.50
2023-02-19T07:42:05.858Z,1.70
2023-02-19T07:43:07.343Z,2.00
2023-02-19T07:44:09.071Z,1.95
2023-02-19T07:45:10.695Z,1.27
2023-02-19T07:46:12.950Z,1.73
2023-02-19T07:47:14.781Z,1.85
2023-02-19T07:48:16.540Z,1.80
2023-02-19T07:49:18.070Z,1.80
2023-02-19T07:50:19.769Z,2.00
2023-02-19T07:51:21.440Z,1.83
2023-02-19T07:52:23.574Z,1.70
2023-02-19T07:53:25.148Z,1.80
2023-02-19T07:54:26.660Z,1.88
2023-02-19T07:55:28.156Z,2.00
2023-02-19T07:56:29.894Z,1.70
2023-02-19T07:57:31.740Z,1.90
2023-02-19T07:58:33.460Z,1.77
2023-02-19T07:59:35.103Z,1.60
2023-02-19T08:00:36.586Z,1.80
2023-02-19T08:01:56.964Z,1.67
2023-02-19T08:03:01.514Z,1.60
2023-02-19T08:04:03.108Z,1.90
2023-02-19T08:05:05.066Z,1.80
2023-02-19T08:06:06.848Z,1.83
2023-02-19T08:07:08.721Z,1.70
2023-02-19T08:08:14.408Z,1.95
2023-02-19T08:09:15.964Z,1.88
2023-02-19T08:10:36.116Z,1.48
2023-02-19T08:11:56.267Z,1.63
2023-02-19T08:13:17.575Z,1.65
2023-02-19T08:16:40.598Z,1.50
2023-02-19T08:17:42.892Z,1.70
2023-02-19T08:18:44.622Z,1.83
2023-02-19T08:19:46.100Z,1.77
2023-02-19T08:20:47.771Z,1.70
2023-02-19T08:21:50.556Z,1.80
2023-02-19T08:22:52.399Z,1.80
2023-02-19T08:23:53.888Z,1.90
2023-02-19T08:24:55.369Z,1.80
2023-02-19T08:25:57.793Z,1.70
2023-02-19T08:26:59.535Z,1.60
2023-02-19T08:28:01.591Z,1.90
2023-02-19T08:29:04.206Z,1.65
2023-02-19T08:30:06.492Z,2.20
2023-02-19T08:31:08.809Z,1.90
2023-02-19T08:32:10.611Z,2.10
2023-02-19T08:33:21.448Z,1.75
2023-02-19T08:34:22.998Z,1.73
2023-02-19T08:35:24.790Z,1.65
2023-02-19T08:36:26.331Z,1.88
2023-02-19T08:37:28.229Z,1.67
2023-02-19T08:38:29.901Z,1.80
2023-02-19T08:39:32.228Z,2.08
2023-02-19T08:40:34.051Z,1.60
2023-02-19T08:41:35.533Z,1.60
2023-02-19T08:42:37.415Z,1.70
2023-02-19T08:43:40.162Z,1.90
2023-02-19T08:44:41.689Z,1.75
2023-02-19T08:45:44.350Z,1.70
2023-02-19T08:46:45.899Z,1.80
2023-02-19T08:47:47.427Z,1.60
2023-02-19T08:48:48.936Z,1.90
2023-02-19T08:49:50.474Z,1.60
2023-02-19T08:50:58.207Z,1.65
2023-02-19T08:51:59.888Z,1.55
2023-02-19T08:53:01.914Z,1.50
2023-02-19T08:54:04.224Z,1.50
2023-02-19T08:55:06.121Z,1.52
2023-02-19T08:56:13.049Z,1.40
2023-02-19T08:57:14.900Z,1.40
2023-02-19T08:58:16.428Z,1.63
2023-02-19T08:59:20.196Z,1.80
2023-02-19T09:00:21.832Z,1.50
2023-02-19T09:01:23.973Z,1.30
2023-02-19T09:02:25.711Z,1.50
2023-02-19T09:03:27.258Z,1.55
2023-02-19T09:04:28.854Z,1.33
2023-02-19T09:05:30.371Z,1.52
2023-02-19T09:06:31.910Z,1.60
2023-02-19T09:07:34.153Z,1.55
2023-02-19T09:08:35.626Z,1.50
2023-02-19T09:09:37.774Z,1.50
2023-02-19T09:10:39.776Z,1.45
2023-02-19T09:11:41.651Z,1.60
2023-02-19T09:12:43.226Z,1.77
2023-02-19T09:13:44.841Z,1.77
2023-02-19T09:14:46.667Z,1.67
2023-02-19T09:15:48.298Z,1.52
2023-02-19T09:16:50.017Z,1.73
2023-02-19T09:17:52.654Z,1.60
2023-02-19T09:18:54.149Z,1.52
2023-02-19T09:19:55.620Z,1.50
2023-02-19T09:21:00.565Z,1.42
2023-02-19T09:22:02.873Z,1.50
2023-02-19T09:23:04.350Z,2.05
2023-02-19T09:24:06.103Z,1.58
2023-02-19T09:25:07.751Z,1.33
2023-02-19T09:26:11.331Z,1.23
2023-02-19T09:27:16.987Z,1.40
2023-02-19T09:28:19.260Z,1.70
2023-02-19T09:29:21.610Z,1.60
2023-02-19T09:30:23.291Z,1.30
2023-02-19T09:31:25.024Z,1.60
2023-02-19T09:32:26.597Z,1.73
2023-02-19T09:33:28.074Z,1.55
2023-02-19T09:34:29.588Z,1.52
2023-02-19T09:35:31.053Z,1.90
2023-02-19T09:36:33.794Z,1.88
2023-02-19T09:37:35.361Z,1.85
2023-02-19T09:38:36.996Z,1.67
2023-02-19T09:39:38.554Z,1.83
2023-02-19T09:40:40.136Z,1.70
2023-02-19T09:41:55.623Z,1.65
2023-02-19T09:42:57.213Z,1.92
2023-02-19T09:43:59.071Z,1.80
2023-02-19T09:45:01.020Z,1.70
2023-02-19T09:46:34.811Z,1.80
2023-02-19T09:47:36.422Z,1.60
2023-02-19T09:48:37.945Z,2.00
2023-02-19T09:49:40.608Z,1.70
2023-02-19T09:50:47.434Z,2.17
2023-02-19T09:52:00.481Z,1.92
2023-02-19T09:53:03.869Z,1.80
2023-02-19T09:54:06.603Z,1.63
2023-02-19T09:55:18.490Z,1.70
2023-02-19T09:56:20.022Z,1.85
2023-02-19T09:57:21.626Z,1.83
2023-02-19T09:58:32.382Z,1.70
2023-02-19T09:59:40.009Z,1.77
2023-02-19T10:00:41.513Z,1.55
2023-02-19T10:01:43.353Z,1.92
2023-02-19T10:02:44.921Z,1.77
2023-02-19T10:03:47.548Z,1.92
2023-02-19T10:04:50.995Z,2.05
2023-02-19T10:05:52.688Z,2.00
2023-02-19T10:06:58.967Z,1.80
2023-02-19T10:08:00.501Z,2.05
2023-02-19T10:09:26.679Z,1.83
2023-02-19T10:10:32.605Z,2.10
2023-02-19T10:11:34.567Z,2.40
2023-02-19T10:12:37.558Z,2.40
2023-02-19T10:14:49.124Z,1.90
2023-02-19T10:15:54.813Z,1.83
2023-02-19T10:17:02.143Z,1.90
2023-02-19T10:18:04.448Z,2.15
2023-02-19T10:19:08.793Z,2.00
2023-02-19T10:20:15.293Z,2.17
2023-02-19T10:21:19.799Z,2.20
2023-02-19T10:22:21.294Z,2.30
2023-02-19T10:23:22.872Z,1.98
2023-02-19T10:24:26.534Z,2.10
2023-02-19T10:25:28.044Z,2.15
2023-02-19T10:26:34.674Z,2.00
2023-02-19T10:27:36.165Z,2.35
2023-02-19T10:28:37.726Z,1.83
2023-02-19T10:29:39.267Z,2.17
2023-02-19T10:30:40.751Z,2.10
2023-02-19T10:31:42.377Z,1.92
2023-02-19T10:33:15.923Z,2.00
2023-02-19T10:34:22.160Z,2.85
2023-02-19T10:35:23.777Z,1.95
2023-02-19T10:36:45.281Z,2.10
2023-02-19T10:37:48.151Z,2.10
2023-02-19T10:38:49.754Z,2.50
2023-02-19T10:39:51.460Z,2.13
2023-02-19T10:41:02.151Z,2.20
2023-02-19T10:42:04.155Z,2.25
2023-02-19T10:43:05.746Z,1.85
2023-02-19T10:44:14.158Z,2.33
2023-02-19T10:45:21.257Z,2.40
2023-02-19T10:46:36.373Z,2.45
2023-02-19T10:49:46.180Z,2.08
2023-02-19T10:50:50.894Z,2.13
2023-02-19T10:51:52.570Z,2.13
2023-02-19T10:52:55.785Z,2.25
2023-02-19T10:54:24.876Z,1.60
2023-02-19T10:55:28.393Z,1.98
2023-02-19T10:56:31.349Z,2.33
2023-02-19T10:58:37.843Z,2.13
2023-02-19T10:59:39.356Z,2.42
2023-02-19T11:00:40.925Z,2.35
2023-02-19T11:02:08.960Z,2.20
2023-02-19T11:03:28.431Z,2.30
2023-02-19T11:04:34.117Z,2.30
2023-02-19T11:05:36.321Z,2.40
2023-02-19T11:06:38.202Z,2.38
2023-02-19T11:07:50.457Z,2.08
2023-02-19T11:08:57.204Z,2.45
2023-02-19T11:09:58.946Z,2.40
2023-02-19T11:11:00.519Z,2.75
2023-02-19T11:12:04.523Z,2.30
2023-02-19T11:13:06.885Z,2.38
2023-02-19T11:14:15.823Z,2.45
2023-02-19T11:15:24.389Z,2.42
2023-02-19T11:16:44.055Z,2.30
2023-02-19T11:17:45.935Z,2.45
2023-02-19T11:18:57.010Z,2.20
2023-02-19T11:20:07.467Z,2.38
2023-02-19T11:21:28.958Z,2.47
2023-02-19T11:22:42.784Z,2.50
2023-02-19T11:23:45.192Z,1.98
2023-02-19T11:24:55.878Z,2.55
2023-02-19T11:26:00.437Z,2.15
2023-02-19T11:27:06.369Z,2.28
2023-02-19T11:28:18.186Z,2.35
2023-02-19T11:29:24.610Z,2.25
2023-02-19T11:30:41.980Z,2.22
2023-02-19T11:31:43.613Z,2.30
2023-02-19T11:32:45.517Z,2.55
2023-02-19T11:33:56.047Z,2.45
2023-02-19T11:35:17.890Z,2.28
2023-02-19T11:36:34.598Z,3.10
2023-02-19T11:37:36.134Z,2.22
2023-02-19T11:38:37.606Z,3.00
2023-02-19T11:39:40.794Z,4.35
2023-02-19T11:41:01.940Z,2.53
2023-02-19T11:42:15.343Z,2.30
2023-02-19T11:43:41.072Z,2.42
2023-02-19T11:45:05.389Z,2.50
2023-02-19T11:46:16.145Z,2.35
2023-02-19T11:47:23.238Z,2.35
2023-02-19T11:48:46.554Z,2.22
2023-02-19T11:50:03.287Z,2.30
2023-02-19T11:51:11.443Z,2.60
2023-02-19T11:52:22.419Z,2.25
2023-02-19T11:53:34.581Z,2.10
2023-02-19T11:54:49.214Z,2.42
2023-02-19T11:56:16.115Z,2.58
2023-02-19T11:57:24.338Z,2.17
2023-02-19T11:58:50.636Z,2.53
2023-02-19T12:00:10.781Z,2.70
2023-02-19T12:01:50.199Z,2.30
2023-02-19T12:03:09.300Z,2.45
2023-02-19T12:04:41.654Z,2.42
2023-02-19T12:05:50.032Z,2.40
2023-02-19T12:07:06.860Z,2.58
2023-02-19T12:08:16.463Z,2.65
2023-02-19T12:09:39.913Z,2.38
2023-02-19T12:11:12.105Z,2.42
2023-02-19T12:12:20.853Z,2.60
2023-02-19T12:13:40.954Z,2.30
2023-02-19T12:14:48.600Z,2.65
2023-02-19T12:15:59.115Z,2.17
2023-02-19T12:17:39.554Z,2.85
2023-02-19T12:18:59.969Z,2.45
2023-02-19T12:20:03.452Z,2.58
2023-02-19T12:21:42.219Z,2.65
2023-02-19T12:23:19.606Z,2.47
2023-02-19T12:24:58.895Z,2.42
2023-02-19T12:26:18.992Z,2.60
2023-02-19T12:27:48.358Z,2.50
2023-02-19T12:28:57.642Z,2.75
2023-02-19T12:30:24.490Z,2.20
2023-02-19T12:31:49.877Z,2.13
2023-02-19T12:33:12.900Z,2.70
2023-02-19T12:34:38.827Z,2.63
2023-02-19T12:36:20.414Z,2.55
2023-02-19T12:37:44.358Z,2.42
2023-02-19T12:39:01.753Z,2.55
2023-02-19T12:40:15.477Z,2.38
2023-02-19T12:41:30.526Z,2.58
2023-02-19T12:42:50.788Z,2.92
2023-02-19T12:43:56.054Z,2.45
2023-02-19T12:44:59.898Z,2.25
2023-02-19T12:46:13.592Z,2.45
2023-02-19T12:47:20.254Z,2.40
2023-02-19T12:48:39.744Z,2.85
2023-02-19T12:49:44.755Z,2.78
2023-02-19T12:50:49.078Z,2.83
2023-02-19T12:51:55.295Z,2.58
2023-02-19T12:53:25.144Z,2.72
2023-02-19T12:54:35.220Z,2.70
2023-02-19T12:55:39.793Z,2.97
2023-02-19T12:56:52.004Z,2.80
2023-02-19T12:57:53.489Z,2.67
2023-02-19T12:58:59.287Z,2.78
2023-02-19T13:00:07.382Z,2.63
2023-02-19T13:01:10.075Z,2.28
2023-02-19T13:02:30.047Z,2.35
2023-02-19T13:03:41.685Z,2.80
2023-02-19T13:05:11.027Z,2.45
2023-02-19T13:06:45.174Z,2.55
2023-02-19T13:08:00.151Z,2.50
2023-02-19T13:09:15.782Z,2.55
2023-02-19T13:10:27.481Z,2.35
2023-02-19T13:11:36.727Z,2.42
2023-02-19T13:12:39.455Z,2.25
2023-02-19T13:13:49.880Z,2.80
2023-02-19T13:14:54.673Z,2.60
2023-02-19T13:16:03.120Z,2.30
2023-02-19T13:17:13.025Z,2.42
2023-02-19T13:18:24.256Z,2.33
2023-02-19T13:19:25.749Z,2.60
2023-02-19T13:20:31.180Z,2.28
2023-02-19T13:21:53.107Z,2.63
2023-02-19T13:23:37.110Z,2.10
2023-02-19T13:24:40.333Z,2.38
2023-02-19T13:25:50.598Z,2.40
2023-02-19T13:27:12.819Z,2.55
2023-02-19T13:28:48.246Z,2.25
2023-02-19T13:30:15.681Z,2.47
2023-02-19T13:32:46.402Z,1.98
2023-02-19T13:34:26.421Z,2.38
2023-02-19T13:35:50.598Z,2.00
2023-02-19T13:36:52.150Z,2.00
2023-02-19T13:37:54.056Z,2.17
2023-02-19T13:38:57.334Z,2.00
2023-02-19T13:39:58.832Z,2.30
2023-02-19T13:41:00.370Z,2.15
2023-02-19T13:42:01.936Z,2.05
2023-02-19T13:43:23.237Z,2.10
2023-02-19T13:44:26.303Z,1.98
2023-02-19T13:45:37.864Z,1.80
2023-02-19T13:46:41.056Z,1.50
2023-02-19T13:47:50.388Z,1.90
2023-02-19T13:49:29.836Z,2.05
2023-02-19T13:50:32.746Z,2.05
2023-02-19T13:53:46.017Z,1.90
2023-02-19T13:54:47.511Z,1.70
2023-02-19T13:55:51.914Z,1.60
2023-02-19T13:57:18.159Z,1.52
2023-02-19T13:58:35.597Z,1.50
2023-02-19T13:59:37.997Z,1.73
2023-02-19T14:00:50.200Z,1.70
2023-02-19T14:01:51.760Z,1.60
2023-02-19T14:03:14.226Z,1.25
2023-02-19T14:04:21.934Z,1.40
2023-02-19T14:05:56.945Z,1.60
2023-02-19T14:07:04.343Z,1.90
2023-02-19T14:08:08.269Z,1.50
2023-02-19T14:09:44.147Z,1.70
2023-02-19T14:10:54.379Z,1.50
2023-02-19T14:12:07.254Z,1.52
2023-02-19T14:13:08.833Z,1.63
2023-02-19T14:14:28.264Z,1.40
2023-02-19T14:15:44.345Z,1.75
2023-02-19T14:16:50.797Z,1.75
2023-02-19T14:17:55.173Z,1.70
2023-02-19T14:18:56.655Z,1.92
2023-02-19T14:20:12.117Z,1.80
2023-02-19T14:21:28.328Z,1.45
2023-02-19T14:22:45.158Z,1.73
2023-02-19T14:23:52.040Z,1.80
2023-02-19T14:24:53.915Z,1.63
2023-02-19T14:25:59.273Z,1.52
2023-02-19T14:27:01.262Z,1.80
2023-02-19T14:28:26.053Z,1.58
2023-02-19T14:29:27.573Z,1.58
2023-02-19T14:30:29.707Z,1.77
2023-02-19T14:31:32.280Z,1.65
2023-02-19T14:32:33.911Z,1.77
2023-02-19T14:33:42.882Z,1.85
2023-02-19T14:34:45.550Z,1.70
2023-02-19T14:35:49.212Z,1.90
2023-02-19T14:36:55.287Z,1.67
2023-02-19T14:37:56.781Z,1.55
2023-02-19T14:39:03.432Z,2.03
2023-02-19T14:40:05.278Z,2.00
2023-02-19T14:41:06.778Z,1.67
2023-02-19T14:42:20.274Z,2.00
2023-02-19T14:43:23.490Z,1.90
2023-02-19T14:44:27.089Z,2.28
2023-02-19T14:45:28.594Z,1.70
2023-02-19T14:46:39.591Z,2.22
2023-02-19T14:47:41.269Z,1.98
2023-02-19T14:48:45.838Z,1.98
2023-02-19T14:50:14.994Z,1.80
2023-02-19T14:51:26.696Z,1.80
2023-02-19T14:52:32.056Z,1.92
2023-02-19T14:53:37.245Z,1.75
2023-02-19T14:54:43.348Z,2.03
2023-02-19T14:55:45.275Z,1.70
2023-02-19T14:56:51.208Z,1.63
2023-02-19T14:57:53.778Z,1.90
2023-02-19T14:59:11.417Z,1.90
2023-02-19T15:00:26.963Z,1.80
2023-02-19T15:01:28.687Z,1.92
2023-02-19T15:02:31.324Z,2.13